Terminal Aerodrome Forecast
Issued by NWS

Home | Current Version | Previous Version | Text Only | Print | Product List | Glossary On
Versions: 1 2 3 4 5 6 7 8 9 10 11 12 13 14 15 16 17 18 19 20
000
FTUS43 KGLD 250523
TAFMCK
TAF
KMCK 250523Z 2506/2606 01010KT P6SM FEW020 SCT080 BKN250
      TEMPO 2507/2510 5SM BR BKN015
     FM251000 07006KT 4SM BR BKN015
      TEMPO 2511/2513 3SM BR BKN007
     FM251400 35007KT P6SM BKN050
     FM251900 31006KT P6SM FEW060
     FM252100 26005KT P6SM FEW060 SCT150
     FM260000 07005KT P6SM SCT060 SCT150=

USA.gov is the U.S. government's official web portal to all federal, state and local government web resources and services.